createdAt,value
2018-12-13T00:01:06.765Z,100915
2018-12-13T00:03:36.352Z,100913
2018-12-13T00:06:05.183Z,100904
2018-12-13T00:08:34.016Z,100902
2018-12-13T00:11:02.857Z,100900
2018-12-13T00:13:31.702Z,100900
2018-12-13T00:16:00.543Z,100901
2018-12-13T00:18:29.376Z,100890
2018-12-13T00:20:58.948Z,100895
2018-12-13T00:23:27.795Z,100888
2018-12-13T00:25:56.686Z,100892
2018-12-13T00:28:25.463Z,100888
2018-12-13T00:30:55.039Z,100889
2018-12-13T00:33:23.860Z,100885
2018-12-13T00:35:53.442Z,100892
2018-12-13T00:38:22.270Z,100891
2018-12-13T00:40:51.843Z,100889
2018-12-13T00:43:20.690Z,100891
2018-12-13T00:45:49.531Z,100891
2018-12-13T00:48:18.370Z,100892
2018-12-13T00:50:47.265Z,100897
2018-12-13T00:53:16.438Z,100890
2018-12-13T00:55:45.278Z,100888
2018-12-13T00:58:14.121Z,100886
2018-12-13T01:00:42.951Z,100882
2018-12-13T01:03:11.775Z,100887
2018-12-13T01:05:40.766Z,100885
2018-12-13T01:08:09.471Z,100887
2018-12-13T01:10:38.316Z,100885
2018-12-13T01:13:07.143Z,100880
2018-12-13T01:15:35.983Z,100887
2018-12-13T01:18:04.815Z,100880
2018-12-13T01:20:34.384Z,100880
2018-12-13T01:23:03.218Z,100876
2018-12-13T01:25:32.043Z,100880
2018-12-13T01:28:00.891Z,100878
2018-12-13T01:30:29.727Z,100878
2018-12-13T01:32:58.562Z,100878
2018-12-13T01:35:28.147Z,100877
2018-12-13T01:37:56.985Z,100877
2018-12-13T01:40:25.820Z,100871
2018-12-13T01:42:54.664Z,100865
2018-12-13T01:45:23.530Z,100868
2018-12-13T03:15:18.468Z,100801
2018-12-13T03:17:47.301Z,100795
2018-12-13T03:20:16.142Z,100794
2018-12-13T03:22:44.974Z,100802
2018-12-13T03:25:13.819Z,100789
2018-12-13T03:27:48.447Z,100834
2018-12-13T03:30:17.297Z,100785
2018-12-13T03:32:46.200Z,100778
2018-12-13T03:35:14.999Z,100776
2018-12-13T03:37:43.899Z,100778
2018-12-13T03:40:12.715Z,100779
2018-12-13T03:42:41.568Z,100780
2018-12-13T03:45:10.415Z,100767
2018-12-13T03:47:39.267Z,100762
2018-12-13T03:50:08.117Z,100760
2018-12-13T03:52:36.954Z,100759
2018-12-13T03:55:05.786Z,100755
2018-12-13T03:57:34.651Z,100752
2018-12-13T04:00:03.499Z,100754
2018-12-13T04:02:32.334Z,100746
2018-12-13T04:05:01.191Z,100747
2018-12-13T04:07:30.034Z,100742
2018-12-13T04:09:58.876Z,100736
2018-12-13T04:12:27.728Z,100740
2018-12-13T04:14:56.564Z,100730
2018-12-13T04:17:25.504Z,100728
2018-12-13T04:19:54.256Z,100729
2018-12-13T04:22:23.115Z,100729
2018-12-13T04:24:51.955Z,100729
2018-12-13T04:27:20.802Z,100730
2018-12-13T04:29:49.657Z,100739
2018-12-13T04:32:18.493Z,100733
2018-12-13T04:34:47.341Z,100729
2018-12-13T04:37:16.175Z,100734
2018-12-13T04:39:45.028Z,100704
2018-12-13T04:42:13.862Z,100732
2018-12-13T04:44:43.431Z,100724
2018-12-13T04:47:12.261Z,100726
2018-12-13T04:49:41.843Z,100721
2018-12-13T04:52:10.673Z,100710
2018-12-13T04:54:39.517Z,100714
2018-12-13T04:57:08.352Z,100711
2018-12-13T04:59:37.183Z,100707
2018-12-13T05:02:06.021Z,100707
2018-12-13T05:04:35.601Z,100705
2018-12-13T05:07:04.445Z,100698
2018-12-13T05:09:33.274Z,100708
2018-12-13T05:12:02.128Z,100710
2018-12-13T05:14:30.957Z,100704
2018-12-13T05:16:59.789Z,100708
2018-12-13T05:19:28.628Z,100700
2018-12-13T05:21:57.479Z,100698
2018-12-13T05:24:26.319Z,100688
2018-12-13T05:26:55.897Z,100691
2018-12-13T05:29:24.734Z,100682
2018-12-13T05:31:53.560Z,100685
2018-12-13T05:34:22.405Z,100687
2018-12-13T05:36:51.978Z,100690
2018-12-13T05:39:20.808Z,100694
2018-12-13T05:41:49.661Z,100691
2018-12-13T05:44:18.493Z,100691
2018-12-13T05:46:47.341Z,100679
2018-12-13T05:49:16.178Z,100680
2018-12-13T05:51:45.035Z,100680
2018-12-13T05:54:13.882Z,100686
2018-12-13T05:56:42.710Z,100686
2018-12-13T05:59:12.296Z,100684
2018-12-13T06:01:41.133Z,100676
2018-12-13T06:04:09.978Z,100684
2018-12-13T06:06:39.278Z,100680
2018-12-13T06:09:08.100Z,100687
2018-12-13T06:11:36.940Z,100686
2018-12-13T06:14:06.511Z,100683
2018-12-13T06:16:35.345Z,100682
2018-12-13T06:19:04.170Z,100680
2018-12-13T06:21:36.818Z,100679
2018-12-13T06:24:02.572Z,100670
2018-12-13T06:26:31.400Z,100678
2018-12-13T06:29:00.255Z,100673
2018-12-13T06:31:29.099Z,100678
2018-12-13T06:33:57.922Z,100686
2018-12-13T06:36:27.502Z,100676
2018-12-13T06:38:56.342Z,100679
2018-12-13T06:41:25.188Z,100674
2018-12-13T06:43:54.033Z,100671
2018-12-13T06:46:22.861Z,100668
2018-12-13T06:48:51.692Z,100672
2018-12-13T06:51:20.526Z,100670
2018-12-13T06:53:49.351Z,100679
2018-12-13T06:56:18.202Z,100671
2018-12-13T06:58:47.032Z,100675
2018-12-13T07:01:15.873Z,100669
2018-12-13T07:03:44.723Z,100667
2018-12-13T07:06:13.562Z,100672
2018-12-13T07:08:42.514Z,100662
2018-12-13T07:11:11.325Z,100659
2018-12-13T07:13:40.103Z,100666
2018-12-13T07:16:08.930Z,100668
2018-12-13T07:18:37.774Z,100674
2018-12-13T07:21:06.611Z,100676
2018-12-13T07:23:35.452Z,100683
2018-12-13T07:26:04.282Z,100682
2018-12-13T07:28:33.184Z,100691
2018-12-13T07:31:02.759Z,100687
2018-12-13T07:33:31.596Z,100688
2018-12-13T07:36:00.440Z,100691
2018-12-13T07:38:29.271Z,100684
2018-12-13T07:40:58.107Z,100682
2018-12-13T07:43:26.948Z,100680
2018-12-13T07:45:56.529Z,100690
2018-12-13T07:48:25.432Z,100679
2018-12-13T07:50:54.216Z,100680
2018-12-13T07:53:23.067Z,100686
2018-12-13T07:55:51.923Z,100681
2018-12-13T07:58:20.774Z,100681
2018-12-13T08:00:49.616Z,100682
2018-12-13T08:03:18.456Z,100684
2018-12-13T08:05:47.301Z,100681
2018-12-13T08:08:20.826Z,100676
2018-12-13T08:10:45.733Z,100673
2018-12-13T08:13:14.569Z,100669
2018-12-13T08:15:43.424Z,100672
2018-12-13T08:18:13.018Z,100678
2018-12-13T08:20:41.883Z,100683
2018-12-13T08:23:10.753Z,100685
2018-12-13T08:25:40.293Z,100682
2018-12-13T08:28:09.137Z,100682
2018-12-13T08:30:37.987Z,100674
2018-12-13T08:33:06.820Z,100686
2018-12-13T08:35:35.660Z,100679
2018-12-13T08:38:04.521Z,100680
2018-12-13T08:40:33.347Z,100682
2018-12-13T08:43:02.932Z,100683
2018-12-13T08:45:31.766Z,100674
2018-12-13T08:48:00.612Z,100676
2018-12-13T08:50:29.438Z,100679
2018-12-13T08:52:58.276Z,100672
2018-12-13T08:55:27.112Z,100673
2018-12-13T08:57:56.712Z,100669
2018-12-13T09:00:25.555Z,100668
2018-12-13T09:02:54.382Z,100674
2018-12-13T09:05:23.229Z,100664
2018-12-13T09:07:52.069Z,100668
2018-12-13T09:10:21.659Z,100665
2018-12-13T09:12:50.494Z,100673
2018-12-13T09:15:19.893Z,100668
2018-12-13T09:17:48.181Z,100662
2018-12-13T09:20:17.018Z,100672
2018-12-13T09:22:45.858Z,100666
2018-12-13T09:25:14.706Z,100663
2018-12-13T09:27:43.557Z,100658
2018-12-13T09:31:13.709Z,100663
2018-12-13T09:33:42.538Z,100660
2018-12-13T09:36:12.127Z,100657
2018-12-13T09:38:40.986Z,100653
2018-12-13T09:41:09.826Z,100650
2018-12-13T09:43:38.709Z,100681
2018-12-13T09:46:07.510Z,100646
2018-12-13T09:48:36.355Z,100654
2018-12-13T09:51:05.193Z,100652
2018-12-13T09:53:34.030Z,100653
2018-12-13T09:56:02.864Z,100645
2018-12-13T09:58:31.716Z,100642
2018-12-13T10:01:00.579Z,100642
2018-12-13T10:03:29.407Z,100646
2018-12-13T10:05:58.265Z,100638
2018-12-13T10:08:27.173Z,100638
2018-12-13T10:10:55.978Z,100630
2018-12-13T10:13:25.840Z,100626
2018-12-13T10:15:54.428Z,100616
2018-12-13T10:18:23.274Z,100619
2018-12-13T10:20:52.863Z,100623
2018-12-13T10:23:21.706Z,100613
2018-12-13T10:25:50.536Z,100605
2018-12-13T10:28:19.381Z,100606
2018-12-13T10:30:48.223Z,100610
2018-12-13T10:33:17.811Z,100602
2018-12-13T10:35:46.672Z,100603
2018-12-13T10:38:15.502Z,100594
2018-12-13T10:40:44.339Z,100593
2018-12-13T10:43:13.177Z,100586
2018-12-13T10:45:42.017Z,100590
2018-12-13T10:48:10.852Z,100580
2018-12-13T10:50:39.717Z,100592
2018-12-13T10:53:08.569Z,100586
2018-12-13T10:55:37.406Z,100593
2018-12-13T10:58:06.245Z,100571
2018-12-13T11:00:36.969Z,100572
2018-12-13T11:03:19.585Z,100572
2018-12-13T11:05:48.453Z,100570
2018-12-13T11:08:17.308Z,100563
2018-12-13T11:10:46.141Z,100566
2018-12-13T11:13:14.992Z,100568
2018-12-13T11:15:43.889Z,100568
2018-12-13T11:18:12.690Z,100550
2018-12-13T11:20:42.118Z,100556
2018-12-13T11:23:10.972Z,100558
2018-12-13T11:25:39.812Z,100559
2018-12-13T11:28:25.426Z,100554
2018-12-13T11:30:54.265Z,100564
2018-12-13T11:33:23.120Z,100566
2018-12-13T11:35:51.973Z,100561
2018-12-13T11:38:21.771Z,100562
2018-12-13T11:40:50.612Z,100559
2018-12-13T11:43:19.461Z,100564
2018-12-13T11:45:48.312Z,100563
2018-12-13T11:48:17.902Z,100559
2018-12-13T11:50:46.731Z,100555
2018-12-13T11:53:15.578Z,100558
2018-12-13T11:55:44.426Z,100553
2018-12-13T11:58:13.274Z,100551
2018-12-13T12:00:42.141Z,100555
2018-12-13T12:03:11.026Z,100563
2018-12-13T12:05:39.823Z,100550
2018-12-13T12:08:08.668Z,100544
2018-12-13T12:10:37.519Z,100544
2018-12-13T12:13:07.108Z,100549
2018-12-13T12:15:35.967Z,100545
2018-12-13T12:18:04.807Z,100541
2018-12-13T12:20:33.655Z,100546
2018-12-13T12:23:02.497Z,100536
2018-12-13T12:25:31.333Z,100544
2018-12-13T12:28:00.179Z,100536
2018-12-13T12:30:29.049Z,100539
2018-12-13T12:32:58.635Z,100532
2018-12-13T12:35:27.480Z,100533
2018-12-13T12:37:56.358Z,100521
2018-12-13T12:40:25.175Z,100525
2018-12-13T12:42:54.042Z,100523
2018-12-13T12:45:22.883Z,100517
2018-12-13T12:47:51.719Z,100528
2018-12-13T12:50:20.570Z,100515
2018-12-13T12:52:49.446Z,100515
2018-12-13T12:55:18.283Z,100525
2018-12-13T12:57:47.130Z,100515
2018-12-13T13:00:16.036Z,100524
2018-12-13T13:02:45.619Z,100512
2018-12-13T13:05:14.527Z,100516
2018-12-13T13:07:43.340Z,100509
2018-12-13T13:10:12.180Z,100513
2018-12-13T13:12:41.023Z,100515
2018-12-13T13:15:09.873Z,100504
2018-12-13T13:17:38.725Z,100511
2018-12-13T13:20:07.576Z,100511
2018-12-13T13:22:36.450Z,100510
2018-12-13T13:25:05.311Z,100506
2018-12-13T13:27:34.146Z,100511
2018-12-13T13:30:03.005Z,100508
2018-12-13T13:32:31.859Z,100516
2018-12-13T13:35:00.706Z,100504
2018-12-13T13:37:29.557Z,100508
2018-12-13T13:39:58.436Z,100510
2018-12-13T13:42:27.290Z,100507
2018-12-13T13:44:56.167Z,100509
2018-12-13T13:47:25.746Z,100511
2018-12-13T13:49:54.583Z,100505
2018-12-13T13:52:23.416Z,100505
2018-12-13T13:54:52.250Z,100510
2018-12-13T13:57:21.102Z,100503
2018-12-13T13:59:49.989Z,100509
2018-12-13T14:02:18.837Z,100515
2018-12-13T14:04:47.683Z,100511
2018-12-13T14:07:17.306Z,100517
2018-12-13T14:09:46.128Z,100508
2018-12-13T14:12:14.962Z,100512
2018-12-13T14:14:43.793Z,100520
2018-12-13T14:17:12.643Z,100507
2018-12-13T14:19:41.542Z,100508
2018-12-13T14:22:10.349Z,100516
2018-12-13T14:24:39.226Z,100519
2018-12-13T14:27:08.803Z,100509
2018-12-13T14:29:37.667Z,100523
2018-12-13T14:32:06.573Z,100514
2018-12-13T14:34:35.402Z,100516
2018-12-13T14:37:04.986Z,100520
2018-12-13T14:39:33.852Z,100522
2018-12-13T14:42:02.698Z,100517
2018-12-13T14:44:31.540Z,100523
2018-12-13T14:47:00.384Z,100524
2018-12-13T14:49:29.227Z,100523
2018-12-13T14:51:58.691Z,100534
2018-12-13T14:54:27.541Z,100528
2018-12-13T14:56:57.147Z,100530
2018-12-13T14:59:25.971Z,100535
2018-12-13T15:01:54.810Z,100535
2018-12-13T15:04:23.680Z,100539
2018-12-13T15:06:52.528Z,100539
2018-12-13T15:09:21.368Z,100546
2018-12-13T15:11:50.202Z,100545
2018-12-13T15:14:19.062Z,100546
2018-12-13T15:16:47.967Z,100548
2018-12-13T15:19:18.340Z,100549
2018-12-13T15:21:46.402Z,100547
2018-12-13T15:24:15.243Z,100551
2018-12-13T15:26:44.107Z,100557
2018-12-13T15:29:12.952Z,100553
2018-12-13T15:31:42.570Z,100552
2018-12-13T15:34:15.630Z,100566
2018-12-13T15:36:44.462Z,100556
2018-12-13T15:39:13.301Z,100559
2018-12-13T15:41:42.142Z,100552
2018-12-13T15:44:10.977Z,100554
2018-12-13T15:46:39.888Z,100547
2018-12-13T15:49:08.682Z,100550
2018-12-13T15:51:38.264Z,100557
2018-12-13T15:54:07.090Z,100564
2018-12-13T15:56:35.942Z,100554
2018-12-13T15:59:04.783Z,100555
2018-12-13T16:01:33.612Z,100550
2018-12-13T16:04:02.446Z,100551
2018-12-13T16:06:31.282Z,100556
2018-12-13T16:09:00.129Z,100560
2018-12-13T16:11:28.966Z,100559
2018-12-13T16:13:57.814Z,100566
2018-12-13T16:16:26.659Z,100544
2018-12-13T16:18:55.499Z,100550
2018-12-13T16:21:24.341Z,100554
2018-12-13T16:23:53.206Z,100565
2018-12-13T16:26:22.077Z,100561
2018-12-13T16:28:50.892Z,100555
2018-12-13T16:31:19.714Z,100561
2018-12-13T16:33:48.564Z,100553
2018-12-13T16:36:17.408Z,100549
2018-12-13T16:38:49.963Z,100555
2018-12-13T16:41:18.665Z,100553
2018-12-13T16:43:47.500Z,100553
2018-12-13T16:46:16.323Z,100551
2018-12-13T16:48:45.185Z,100555
2018-12-13T16:51:14.027Z,100549
2018-12-13T16:53:42.869Z,100550
2018-12-13T16:56:11.716Z,100548
2018-12-13T16:58:40.562Z,100552
2018-12-13T17:01:09.417Z,100551
2018-12-13T17:03:38.264Z,100551
2018-12-13T17:06:07.101Z,100556
2018-12-13T17:08:35.944Z,100552
2018-12-13T17:11:04.813Z,100555
2018-12-13T17:13:34.399Z,100549
2018-12-13T17:16:03.248Z,100551
2018-12-13T17:18:32.086Z,100550
2018-12-13T17:21:00.926Z,100544
2018-12-13T17:23:29.791Z,100553
2018-12-13T17:25:59.371Z,100552
2018-12-13T17:28:28.230Z,100538
2018-12-13T17:30:57.088Z,100546
2018-12-13T17:33:25.996Z,100533
2018-12-13T17:35:54.825Z,100535
2018-12-13T17:38:23.768Z,100537
2018-12-13T17:40:52.628Z,100535
2018-12-13T17:43:21.483Z,100539
2018-12-13T17:45:50.324Z,100533
2018-12-13T17:48:19.168Z,100543
2018-12-13T17:50:48.026Z,100554
2018-12-13T17:53:16.860Z,100540
2018-12-13T17:55:46.279Z,100535
2018-12-13T17:58:15.124Z,100536
2018-12-13T18:00:43.972Z,100533
2018-12-13T18:03:12.831Z,100550
2018-12-13T18:05:42.384Z,100545
2018-12-13T18:08:11.221Z,100537
2018-12-13T18:10:40.068Z,100544
2018-12-13T18:13:08.913Z,100545
2018-12-13T18:15:37.767Z,100541
2018-12-13T18:18:06.616Z,100543
2018-12-13T18:20:35.488Z,100534
2018-12-13T18:23:04.291Z,100540
2018-12-13T18:25:33.141Z,100545
2018-12-13T18:28:01.993Z,100546
2018-12-13T18:30:30.822Z,100544
2018-12-13T18:32:59.664Z,100551
2018-12-13T18:35:28.496Z,100551
2018-12-13T18:37:57.331Z,100552
2018-12-13T18:40:26.200Z,100560
2018-12-13T18:42:55.784Z,100557
2018-12-13T18:45:24.634Z,100552
2018-12-13T18:47:53.478Z,100542
2018-12-13T18:50:22.337Z,100546
2018-12-13T18:52:51.197Z,100545
2018-12-13T18:55:20.037Z,100549
2018-12-13T18:57:48.900Z,100541
2018-12-13T19:00:17.753Z,100559
2018-12-13T19:02:46.597Z,100554
2018-12-13T19:05:16.027Z,100554
2018-12-13T19:07:44.857Z,100556
2018-12-13T19:10:13.708Z,100564
2018-12-13T19:12:42.568Z,100553
2018-12-13T19:15:11.411Z,100586
2018-12-13T19:17:40.277Z,100558
2018-12-13T19:20:09.912Z,100544
2018-12-13T19:22:39.562Z,100553
2018-12-13T19:25:08.441Z,100555
2018-12-13T19:27:37.245Z,100549
2018-12-13T19:30:06.825Z,100557
2018-12-13T19:32:35.665Z,100559
2018-12-13T19:35:05.268Z,100564
2018-12-13T19:37:34.851Z,100564
2018-12-13T19:40:04.297Z,100570
2018-12-13T19:42:33.134Z,100565
2018-12-13T19:45:01.968Z,100573
2018-12-13T19:47:30.820Z,100575
2018-12-13T19:50:00.414Z,100577
2018-12-13T19:52:29.257Z,100582
2018-12-13T19:54:58.099Z,100579
2018-12-13T19:57:26.944Z,100582
2018-12-13T19:59:55.788Z,100575
2018-12-13T20:02:24.624Z,100579
2018-12-13T20:04:53.481Z,100588
2018-12-13T20:07:23.076Z,100589
2018-12-13T20:09:51.950Z,100590
2018-12-13T20:12:20.842Z,100594
2018-12-13T20:14:49.645Z,100595
2018-12-13T20:17:18.483Z,100599
2018-12-13T20:19:47.335Z,100606
2018-12-13T20:22:16.925Z,100603
2018-12-13T20:24:46.499Z,100606
2018-12-13T20:27:15.348Z,100607
2018-12-13T20:29:44.221Z,100608
2018-12-13T20:32:13.813Z,100607
2018-12-13T20:34:42.697Z,100613
2018-12-13T20:37:11.536Z,100615
2018-12-13T20:39:40.383Z,100619
2018-12-13T20:42:09.247Z,100617
2018-12-13T20:44:38.103Z,100616
2018-12-13T20:47:06.977Z,100616
2018-12-13T20:49:35.831Z,100626
2018-12-13T20:52:04.665Z,100633
2018-12-13T20:54:33.524Z,100632
2018-12-13T20:57:03.117Z,100624
2018-12-13T20:59:31.957Z,100628
2018-12-13T21:02:00.809Z,100627
2018-12-13T21:04:29.660Z,100631
2018-12-13T21:07:04.114Z,100628
2018-12-13T21:09:33.705Z,100625
2018-12-13T21:12:02.541Z,100630
2018-12-13T21:14:31.394Z,100624
2018-12-13T21:17:01.006Z,100622
2018-12-13T21:19:29.876Z,100621
2018-12-13T21:21:58.715Z,100627
2018-12-13T21:24:27.555Z,100618
2018-12-13T21:26:56.382Z,100665
2018-12-13T21:29:25.259Z,100619
2018-12-13T21:31:54.100Z,100615
2018-12-13T21:34:22.991Z,100613
2018-12-13T21:36:51.804Z,100614
2018-12-13T21:39:20.663Z,100611
2018-12-13T21:41:49.509Z,100614
2018-12-13T21:44:19.226Z,100616
2018-12-13T21:46:48.064Z,100606
2018-12-13T21:49:16.901Z,100614
2018-12-13T21:51:46.498Z,100608
2018-12-13T21:54:16.103Z,100606
2018-12-13T21:56:44.955Z,100609
2018-12-13T21:59:13.789Z,100603
2018-12-13T22:01:42.644Z,100603
2018-12-13T22:04:11.554Z,100603
2018-12-13T22:06:41.138Z,100606
2018-12-13T22:09:09.938Z,100613
2018-12-13T22:11:38.782Z,100613
2018-12-13T22:14:07.632Z,100605
2018-12-13T22:16:36.505Z,100611
2018-12-13T22:19:06.089Z,100607
2018-12-13T22:21:35.478Z,100616
2018-12-13T22:24:04.335Z,100608
2018-12-13T22:26:33.177Z,100611
2018-12-13T22:29:02.020Z,100617
2018-12-13T22:31:30.886Z,100615
2018-12-13T22:33:59.687Z,100608
2018-12-13T22:36:28.524Z,100622
2018-12-13T22:38:58.115Z,100620
2018-12-13T22:41:27.723Z,100630
2018-12-13T22:43:57.308Z,100637
2018-12-13T22:46:26.160Z,100638
2018-12-13T22:48:55.001Z,100629
2018-12-13T22:51:23.848Z,100628
2018-12-13T22:53:53.017Z,100634
2018-12-13T22:56:22.569Z,100633
2018-12-13T22:58:51.412Z,100640
2018-12-13T23:01:20.296Z,100636
2018-12-13T23:03:49.107Z,100635
2018-12-13T23:06:17.946Z,100626
2018-12-13T23:08:46.782Z,100641
2018-12-13T23:11:15.630Z,100629
2018-12-13T23:13:45.237Z,100631
2018-12-13T23:16:14.082Z,100648
2018-12-13T23:18:42.916Z,100643
2018-12-13T23:21:11.787Z,100643
2018-12-13T23:23:40.620Z,100655
2018-12-13T23:26:09.457Z,100648
2018-12-13T23:28:38.298Z,100645
2018-12-13T23:31:07.150Z,100638
2018-12-13T23:33:35.999Z,100644
2018-12-13T23:36:04.835Z,100640
2018-12-13T23:38:34.422Z,100635
2018-12-13T23:41:03.270Z,100638
2018-12-13T23:43:32.106Z,100633
2018-12-13T23:46:00.953Z,100637
2018-12-13T23:48:29.791Z,100632
2018-12-13T23:50:58.623Z,100637
2018-12-13T23:53:27.465Z,100627
2018-12-13T23:55:56.904Z,100619
2018-12-13T23:58:25.774Z,100623
